createdAt,value
2023-02-22T00:03:08.105Z,100433.50
2023-02-22T00:08:11.453Z,100425.44
2023-02-22T00:13:15.647Z,100419.09
2023-02-22T00:18:19.298Z,100426.28
2023-02-22T00:23:23.590Z,100422.53
2023-02-22T00:28:27.884Z,100419.72
2023-02-22T00:33:31.779Z,100422.28
2023-02-22T00:38:34.597Z,100416.41
2023-02-22T00:43:39.816Z,100418.75
2023-02-22T00:48:42.649Z,100418.16
2023-02-22T00:53:46.524Z,100414.47
2023-02-22T00:58:50.812Z,100417.03
2023-02-22T01:03:53.661Z,100409.09
2023-02-22T01:08:56.582Z,100414.34
2023-02-22T01:14:01.514Z,100411.66
2023-02-22T01:19:06.159Z,100406.41
2023-02-22T01:24:09.135Z,100401.63
2023-02-22T01:29:15.408Z,100401.50
2023-02-22T01:34:18.371Z,100398.22
2023-02-22T01:39:21.181Z,100398.09
2023-02-22T01:44:30.226Z,100390.75
2023-02-22T01:49:37.500Z,100384.53
2023-02-22T01:54:42.770Z,100387.59
2023-02-22T01:59:48.361Z,100382.97
2023-02-22T02:04:51.308Z,100381.38
2023-02-22T02:09:57.689Z,100369.28
2023-02-22T02:15:20.317Z,100379.75
2023-02-22T02:20:27.777Z,100376.47
2023-02-22T02:25:57.264Z,100379.88
2023-02-22T02:31:32.767Z,100374.38
2023-02-22T02:36:42.722Z,100362.56
2023-02-22T02:41:46.446Z,100360.63
2023-02-22T02:46:51.626Z,100363.19
2023-02-22T02:51:57.304Z,100357.81
2023-02-22T02:57:00.038Z,100358.78
2023-02-22T03:02:12.816Z,100353.16
2023-02-22T03:07:30.084Z,100346.06
2023-02-22T03:12:39.891Z,100345.09
2023-02-22T03:17:47.575Z,100346.91
2023-02-22T03:22:56.411Z,100337.88
2023-02-22T03:28:02.337Z,100331.06
2023-02-22T03:33:08.999Z,100334.47
2023-02-22T03:38:14.243Z,100338.16
2023-02-22T03:43:19.051Z,100331.91
2023-02-22T03:48:25.189Z,100334.47
2023-02-22T03:53:30.510Z,100332.03
2023-02-22T03:58:33.615Z,100334.47
2023-02-22T04:03:36.417Z,100331.78
2023-02-22T04:08:40.974Z,100334.59
2023-02-22T04:13:44.006Z,100332.78
2023-02-22T04:18:47.422Z,100333.97
2023-02-22T04:23:55.414Z,100331.41
2023-02-22T04:28:58.346Z,100329.00
2023-02-22T04:34:04.713Z,100329.59
2023-02-22T04:39:12.506Z,100327.28
2023-02-22T04:44:15.443Z,100326.56
2023-02-22T04:49:18.434Z,100328.50
2023-02-22T04:54:24.201Z,100320.91
2023-02-22T04:59:27.598Z,100305.03
2023-02-22T05:04:36.901Z,100312.75
2023-02-22T05:09:41.064Z,100310.53
2023-02-22T05:14:44.489Z,100311.88
2023-02-22T05:19:47.648Z,100303.94
2023-02-22T05:24:52.557Z,100309.94
2023-02-22T05:29:55.308Z,100315.31
2023-02-22T05:34:58.038Z,100304.19
2023-02-22T05:40:02.178Z,100302.22
2023-02-22T05:45:05.390Z,100310.41
2023-02-22T05:50:09.446Z,100308.06
2023-02-22T05:55:14.757Z,100315.41
2023-02-22T06:00:19.178Z,100309.28
2023-02-22T06:05:22.041Z,100307.94
2023-02-22T06:10:26.446Z,100304.78
2023-02-22T06:15:29.875Z,100310.38
2023-02-22T06:20:33.336Z,100313.28
2023-02-22T06:25:37.466Z,100310.84
2023-02-22T06:30:41.048Z,100314.63
2023-02-22T06:35:43.814Z,100313.16
2023-02-22T06:40:48.091Z,100323.28
2023-02-22T06:45:50.905Z,100327.06
2023-02-22T06:50:53.922Z,100330.94
2023-02-22T06:55:58.105Z,100337.34
2023-02-22T07:01:02.761Z,100330.63
2023-02-22T07:06:07.321Z,100332.81
2023-02-22T07:11:11.698Z,100340.97
2023-02-22T07:16:14.561Z,100336.81
2023-02-22T07:21:19.097Z,100344.25
2023-02-22T07:26:23.559Z,100346.91
2023-02-22T07:31:28.791Z,100341.88
2023-02-22T07:36:32.565Z,100342.00
2023-02-22T07:41:36.845Z,100342.97
2023-02-22T07:46:48.316Z,100341.41
2023-02-22T07:51:51.156Z,100340.00
2023-02-22T07:56:55.365Z,100339.41
2023-02-22T08:01:58.172Z,100336.72
2023-02-22T08:07:01.205Z,100340.41
2023-02-22T08:12:05.848Z,100340.34
2023-02-22T08:17:09.472Z,100344.94
2023-02-22T08:22:12.349Z,100336.25
2023-02-22T08:27:16.461Z,100340.97
2023-02-22T08:32:19.417Z,100331.63
2023-02-22T08:37:22.261Z,100326.69
2023-02-22T08:42:26.452Z,100326.53
2023-02-22T08:47:29.226Z,100331.13
2023-02-22T08:52:32.104Z,100329.72
2023-02-22T08:57:36.269Z,100333.38
2023-02-22T09:02:39.141Z,100327.34
2023-02-22T09:07:43.038Z,100323.19
2023-02-22T09:12:47.280Z,100328.97
2023-02-22T09:17:50.033Z,100317.75
2023-02-22T09:22:53.208Z,100320.97
2023-02-22T09:27:57.583Z,100320.75
2023-02-22T09:33:01.652Z,100314.28
2023-02-22T09:38:06.180Z,100321.16
2023-02-22T09:43:21.740Z,100316.66
2023-02-22T09:48:25.266Z,100313.72
2023-02-22T09:53:30.407Z,100317.25
2023-02-22T09:58:36.719Z,100308.91
2023-02-22T10:03:46.319Z,100302.56
2023-02-22T10:08:50.173Z,100300.00
2023-02-22T10:13:57.979Z,100295.69
2023-02-22T10:19:08.516Z,100302.56
2023-02-22T10:24:16.198Z,100289.16
2023-02-22T10:29:22.383Z,100287.44
2023-02-22T10:34:26.200Z,100284.13
2023-02-22T10:39:30.992Z,100283.28
2023-02-22T10:44:35.343Z,100275.03
2023-02-22T10:49:42.146Z,100273.06
2023-02-22T10:54:46.577Z,100271.75
2023-02-22T10:59:51.977Z,100271.41
2023-02-22T11:04:55.569Z,100271.69
2023-02-22T11:09:59.543Z,100264.25
2023-02-22T11:15:26.601Z,100260.72
2023-02-22T11:20:34.385Z,100257.06
2023-02-22T11:25:38.640Z,100240.38
2023-02-22T11:30:43.972Z,100235.34
2023-02-22T11:35:52.640Z,100241.47
2023-02-22T11:41:14.491Z,100233.41
2023-02-22T11:46:20.029Z,100227.81
2023-02-22T11:51:28.250Z,100213.94
2023-02-22T11:56:38.083Z,100211.25
2023-02-22T12:01:46.370Z,100199.91
2023-02-22T12:06:52.451Z,100198.00
2023-02-22T12:12:00.854Z,100206.78
2023-02-22T12:17:20.441Z,100190.16
2023-02-22T12:22:25.674Z,100189.56
2023-02-22T12:27:31.122Z,100194.56
2023-02-22T12:32:38.119Z,100180.41
2023-02-22T12:37:53.427Z,100187.03
2023-02-22T12:42:59.624Z,100191.41
2023-02-22T12:48:11.053Z,100180.31
2023-02-22T12:53:15.438Z,100181.09
2023-02-22T12:58:23.137Z,100182.31
2023-02-22T13:03:31.695Z,100171.09
2023-02-22T13:08:36.745Z,100160.72
2023-02-22T13:13:42.366Z,100158.50
2023-02-22T13:18:49.546Z,100144.50
2023-02-22T13:23:55.119Z,100148.41
2023-02-22T13:29:00.191Z,100140.59
2023-02-22T13:34:32.906Z,100148.16
2023-02-22T13:39:42.129Z,100146.06
2023-02-22T13:45:03.292Z,100147.66
2023-02-22T13:50:25.786Z,100142.53
2023-02-22T13:55:32.752Z,100142.41
2023-02-22T14:00:47.014Z,100145.84
2023-02-22T14:05:52.686Z,100148.53
2023-02-22T14:10:56.147Z,100138.50
2023-02-22T14:16:19.681Z,100136.91
2023-02-22T14:21:24.744Z,100136.78
2023-02-22T14:26:28.619Z,100116.66
2023-02-22T14:31:37.375Z,100121.06
2023-02-22T14:36:45.804Z,100113.88
2023-02-22T14:41:53.823Z,100111.56
2023-02-22T14:46:57.615Z,100107.41
2023-02-22T14:52:05.642Z,100100.09
2023-02-22T14:57:14.810Z,100092.75
2023-02-22T15:02:19.824Z,100092.41
2023-02-22T15:07:27.651Z,100089.72
2023-02-22T15:12:30.887Z,100086.91
2023-02-22T15:17:34.010Z,100094.19
2023-02-22T15:22:38.180Z,100088.31
2023-02-22T15:27:40.944Z,100084.19
2023-02-22T15:33:01.295Z,100088.84
2023-02-22T15:38:08.266Z,100078.69
2023-02-22T15:43:18.815Z,100082.25
2023-02-22T15:48:21.709Z,100079.84
2023-02-22T15:53:27.421Z,100082.75
2023-02-22T15:58:30.227Z,100081.31
2023-02-22T16:03:38.657Z,100077.78
2023-02-22T16:08:54.459Z,100075.81
2023-02-22T16:14:00.326Z,100077.00
2023-02-22T16:19:37.450Z,100076.88
2023-02-22T16:24:42.363Z,100076.88
2023-02-22T16:29:45.288Z,100077.59
2023-02-22T16:34:48.119Z,100079.56
2023-02-22T16:39:53.074Z,100074.34
2023-02-22T16:44:56.005Z,100076.28
2023-02-22T16:49:58.762Z,100078.22
2023-02-22T16:55:02.922Z,100078.34
2023-02-22T17:00:09.729Z,100077.25
2023-02-22T17:05:14.804Z,100069.94
2023-02-22T17:10:19.542Z,100077.59
2023-02-22T17:15:27.100Z,100068.22
2023-02-22T17:20:30.968Z,100073.69
2023-02-22T17:25:37.695Z,100075.53
2023-02-22T17:30:41.342Z,100070.63
2023-02-22T17:35:44.488Z,100077.59
2023-02-22T17:40:49.066Z,100069.69
2023-02-22T17:45:51.934Z,100063.47
2023-02-22T17:50:54.964Z,100064.56
2023-02-22T17:55:59.318Z,100056.53
2023-02-22T18:01:02.197Z,100062.97
2023-02-22T18:06:05.949Z,100054.47
2023-02-22T18:11:10.246Z,100049.09
2023-02-22T18:16:13.149Z,100050.81
2023-02-22T18:21:16.246Z,100052.63
2023-02-22T18:26:21.336Z,100045.56
2023-02-22T18:31:24.559Z,100044.44
2023-02-22T18:36:27.449Z,100040.19
2023-02-22T18:41:31.726Z,100035.69
2023-02-22T18:46:34.638Z,100028.63
2023-02-22T18:51:39.836Z,100033.97
2023-02-22T18:56:44.235Z,100026.06
2023-02-22T19:01:49.129Z,100020.06
2023-02-22T19:06:52.137Z,100015.69
2023-02-22T19:11:56.289Z,100014.72
2023-02-22T19:17:01.489Z,100009.47
2023-02-22T19:22:04.743Z,99998.59
2023-02-22T19:27:08.954Z,100004.97
2023-02-22T19:32:12.387Z,99993.63
2023-02-22T19:37:15.358Z,99990.81
2023-02-22T19:42:19.687Z,99992.66
2023-02-22T19:47:22.567Z,99980.22
2023-02-22T19:52:25.440Z,99989.13
2023-02-22T19:57:29.882Z,99987.41
2023-02-22T20:02:32.981Z,99985.72
2023-02-22T20:07:35.870Z,99982.78
2023-02-22T20:12:40.038Z,99980.53
2023-02-22T20:17:44.823Z,99983.84
2023-02-22T20:22:47.809Z,99984.28
2023-02-22T20:27:52.024Z,99982.69
2023-02-22T20:32:55.355Z,99985.22
2023-02-22T20:37:58.273Z,99978.63
2023-02-22T20:43:02.451Z,99973.84
2023-02-22T20:48:05.567Z,99978.97
2023-02-22T20:53:08.984Z,99975.88
2023-02-22T20:58:13.151Z,99980.28
2023-02-22T21:03:15.954Z,99988.06
2023-02-22T21:08:19.013Z,99985.28
2023-02-22T21:13:23.384Z,99991.34
2023-02-22T21:18:26.397Z,100000.25
2023-02-22T21:23:30.393Z,99992.19
2023-02-22T21:28:50.441Z,99990.25
2023-02-22T21:33:54.765Z,99980.34
2023-02-22T21:38:58.626Z,99986.31
2023-02-22T21:44:02.837Z,99982.41
2023-02-22T21:49:05.769Z,99986.78
2023-02-22T21:54:09.503Z,99975.06
2023-02-22T21:59:14.683Z,99981.06
2023-02-22T22:04:19.129Z,99976.53
2023-02-22T22:09:23.549Z,99970.31
2023-02-22T22:14:28.116Z,99982.84
2023-02-22T22:19:31.776Z,99976.53
2023-02-22T22:24:35.142Z,99976.78
2023-02-22T22:29:39.287Z,99979.47
2023-02-22T22:34:42.570Z,99976.91
2023-02-22T22:39:45.572Z,99979.47
2023-02-22T22:44:51.565Z,99984.97
2023-02-22T22:50:01.280Z,99986.78
2023-02-22T22:55:07.012Z,99985.19
2023-02-22T23:00:32.797Z,99986.94
2023-02-22T23:05:39.946Z,99988.88
2023-02-22T23:10:42.902Z,99987.88
2023-02-22T23:15:48.092Z,99995.00
2023-02-22T23:20:55.123Z,99987.78
2023-02-22T23:26:11.384Z,99991.19
2023-02-22T23:31:16.814Z,99983.84
2023-02-22T23:36:20.024Z,99981.28
2023-02-22T23:41:25.003Z,99973.09
2023-02-22T23:46:32.665Z,99975.69
2023-02-22T23:51:39.366Z,99983.59
2023-02-22T23:56:47.061Z,99980.91
